sensor_id;sensor_type;location;lat;lon;timestamp;P1;durP1;ratioP1;P2;durP2;ratioP2
16286;SDS011;8251;53.568;10.018;2023-10-08T00:02:23;11.77;;;3.27;;
16286;SDS011;8251;53.568;10.018;2023-10-08T00:04:51;9.97;;;3.50;;
16286;SDS011;8251;53.568;10.018;2023-10-08T00:07:19;6.90;;;3.10;;
16286;SDS011;8251;53.568;10.018;2023-10-08T00:09:47;8.73;;;3.50;;
16286;SDS011;8251;53.568;10.018;2023-10-08T00:12:16;8.20;;;3.20;;
16286;SDS011;8251;53.568;10.018;2023-10-08T00:14:44;10.27;;;4.33;;
16286;SDS011;8251;53.568;10.018;2023-10-08T00:17:15;11.20;;;2.90;;
16286;SDS011;8251;53.568;10.018;2023-10-08T00:19:43;10.17;;;3.63;;
16286;SDS011;8251;53.568;10.018;2023-10-08T00:22:10;11.07;;;3.17;;
16286;SDS011;8251;53.568;10.018;2023-10-08T00:24:39;10.97;;;2.87;;
16286;SDS011;8251;53.568;10.018;2023-10-08T00:27:13;11.13;;;3.33;;
16286;SDS011;8251;53.568;10.018;2023-10-08T00:29:40;12.23;;;3.23;;
16286;SDS011;8251;53.568;10.018;2023-10-08T00:32:08;9.27;;;3.60;;
16286;SDS011;8251;53.568;10.018;2023-10-08T00:34:40;11.67;;;3.37;;
16286;SDS011;8251;53.568;10.018;2023-10-08T00:37:08;12.20;;;3.17;;
16286;SDS011;8251;53.568;10.018;2023-10-08T00:39:36;11.97;;;2.90;;
16286;SDS011;8251;53.568;10.018;2023-10-08T00:42:05;10.27;;;2.33;;
16286;SDS011;8251;53.568;10.018;2023-10-08T00:44:32;12.43;;;2.57;;
16286;SDS011;8251;53.568;10.018;2023-10-08T00:47:06;9.00;;;3.10;;
16286;SDS011;8251;53.568;10.018;2023-10-08T00:49:36;7.27;;;2.47;;
16286;SDS011;8251;53.568;10.018;2023-10-08T00:52:20;10.63;;;2.83;;
16286;SDS011;8251;53.568;10.018;2023-10-08T00:55:03;12.57;;;3.30;;
16286;SDS011;8251;53.568;10.018;2023-10-08T00:57:36;8.10;;;2.47;;
16286;SDS011;8251;53.568;10.018;2023-10-08T01:00:09;7.90;;;2.13;;
16286;SDS011;8251;53.568;10.018;2023-10-08T01:02:46;8.57;;;2.23;;
16286;SDS011;8251;53.568;10.018;2023-10-08T01:05:21;10.13;;;2.53;;
16286;SDS011;8251;53.568;10.018;2023-10-08T01:07:52;7.43;;;2.20;;
16286;SDS011;8251;53.568;10.018;2023-10-08T01:10:27;9.83;;;2.20;;
16286;SDS011;8251;53.568;10.018;2023-10-08T01:12:55;6.63;;;1.87;;
16286;SDS011;8251;53.568;10.018;2023-10-08T01:18:20;10.47;;;2.03;;
16286;SDS011;8251;53.568;10.018;2023-10-08T01:20:56;8.90;;;2.90;;
16286;SDS011;8251;53.568;10.018;2023-10-08T01:23:31;6.07;;;1.77;;
16286;SDS011;8251;53.568;10.018;2023-10-08T01:25:58;8.80;;;1.70;;
16286;SDS011;8251;53.568;10.018;2023-10-08T01:28:35;8.93;;;2.13;;
16286;SDS011;8251;53.568;10.018;2023-10-08T01:31:02;9.83;;;2.00;;
16286;SDS011;8251;53.568;10.018;2023-10-08T01:33:31;7.50;;;2.37;;
16286;SDS011;8251;53.568;10.018;2023-10-08T01:36:03;4.10;;;1.57;;
16286;SDS011;8251;53.568;10.018;2023-10-08T01:38:34;6.70;;;2.20;;
16286;SDS011;8251;53.568;10.018;2023-10-08T01:41:01;7.23;;;1.70;;
16286;SDS011;8251;53.568;10.018;2023-10-08T01:43:30;8.30;;;1.87;;
16286;SDS011;8251;53.568;10.018;2023-10-08T01:45:57;8.77;;;1.83;;
16286;SDS011;8251;53.568;10.018;2023-10-08T01:48:24;7.63;;;1.80;;
16286;SDS011;8251;53.568;10.018;2023-10-08T01:50:54;6.60;;;1.50;;
16286;SDS011;8251;53.568;10.018;2023-10-08T01:53:21;11.37;;;1.70;;
16286;SDS011;8251;53.568;10.018;2023-10-08T01:55:49;12.07;;;1.53;;
16286;SDS011;8251;53.568;10.018;2023-10-08T01:58:17;12.87;;;1.80;;
16286;SDS011;8251;53.568;10.018;2023-10-08T02:00:45;7.37;;;1.90;;
16286;SDS011;8251;53.568;10.018;2023-10-08T02:03:12;10.90;;;1.33;;
16286;SDS011;8251;53.568;10.018;2023-10-08T02:05:41;7.97;;;1.53;;
16286;SDS011;8251;53.568;10.018;2023-10-08T02:08:09;4.70;;;1.50;;
16286;SDS011;8251;53.568;10.018;2023-10-08T02:10:37;10.60;;;1.20;;
16286;SDS011;8251;53.568;10.018;2023-10-08T02:13:06;7.70;;;1.93;;
16286;SDS011;8251;53.568;10.018;2023-10-08T02:15:34;13.77;;;1.80;;
16286;SDS011;8251;53.568;10.018;2023-10-08T02:18:02;7.73;;;1.40;;
16286;SDS011;8251;53.568;10.018;2023-10-08T02:20:29;6.37;;;2.23;;
16286;SDS011;8251;53.568;10.018;2023-10-08T02:22:56;12.73;;;3.07;;
16286;SDS011;8251;53.568;10.018;2023-10-08T02:25:25;9.63;;;2.80;;
16286;SDS011;8251;53.568;10.018;2023-10-08T02:27:52;3.57;;;1.10;;
16286;SDS011;8251;53.568;10.018;2023-10-08T02:30:20;4.20;;;1.70;;
16286;SDS011;8251;53.568;10.018;2023-10-08T02:32:47;2.83;;;1.60;;
16286;SDS011;8251;53.568;10.018;2023-10-08T02:35:14;3.77;;;1.00;;
16286;SDS011;8251;53.568;10.018;2023-10-08T02:37:41;5.40;;;1.43;;
16286;SDS011;8251;53.568;10.018;2023-10-08T02:40:10;4.87;;;3.00;;
16286;SDS011;8251;53.568;10.018;2023-10-08T02:42:44;6.67;;;1.40;;
16286;SDS011;8251;53.568;10.018;2023-10-08T02:45:12;8.00;;;1.60;;
16286;SDS011;8251;53.568;10.018;2023-10-08T02:47:43;6.47;;;1.10;;
16286;SDS011;8251;53.568;10.018;2023-10-08T02:50:23;5.30;;;1.23;;
16286;SDS011;8251;53.568;10.018;2023-10-08T02:52:52;8.80;;;1.33;;
16286;SDS011;8251;53.568;10.018;2023-10-08T02:55:19;6.17;;;1.50;;
16286;SDS011;8251;53.568;10.018;2023-10-08T02:57:53;7.60;;;1.50;;
16286;SDS011;8251;53.568;10.018;2023-10-08T03:00:22;4.67;;;1.10;;
16286;SDS011;8251;53.568;10.018;2023-10-08T03:02:55;6.23;;;1.90;;
16286;SDS011;8251;53.568;10.018;2023-10-08T03:05:22;10.83;;;1.87;;
16286;SDS011;8251;53.568;10.018;2023-10-08T03:07:54;5.87;;;1.23;;
16286;SDS011;8251;53.568;10.018;2023-10-08T03:10:23;2.73;;;1.40;;
16286;SDS011;8251;53.568;10.018;2023-10-08T03:12:57;10.20;;;1.30;;
16286;SDS011;8251;53.568;10.018;2023-10-08T03:15:29;4.40;;;1.00;;
16286;SDS011;8251;53.568;10.018;2023-10-08T03:18:05;6.50;;;1.57;;
16286;SDS011;8251;53.568;10.018;2023-10-08T03:20:35;4.93;;;0.97;;
16286;SDS011;8251;53.568;10.018;2023-10-08T03:23:07;1.83;;;0.90;;
16286;SDS011;8251;53.568;10.018;2023-10-08T03:25:49;6.77;;;1.10;;
16286;SDS011;8251;53.568;10.018;2023-10-08T03:31:43;3.73;;;1.03;;
16286;SDS011;8251;53.568;10.018;2023-10-08T03:34:18;5.63;;;1.13;;
16286;SDS011;8251;53.568;10.018;2023-10-08T03:36:46;3.50;;;1.17;;
16286;SDS011;8251;53.568;10.018;2023-10-08T03:39:14;5.67;;;1.37;;
16286;SDS011;8251;53.568;10.018;2023-10-08T03:41:43;3.43;;;0.97;;
16286;SDS011;8251;53.568;10.018;2023-10-08T03:44:23;10.53;;;1.47;;
16286;SDS011;8251;53.568;10.018;2023-10-08T03:46:49;6.30;;;1.20;;
16286;SDS011;8251;53.568;10.018;2023-10-08T03:49:19;10.87;;;1.17;;
16286;SDS011;8251;53.568;10.018;2023-10-08T03:51:52;7.37;;;1.57;;
16286;SDS011;8251;53.568;10.018;2023-10-08T03:54:22;4.00;;;1.10;;
16286;SDS011;8251;53.568;10.018;2023-10-08T03:56:54;3.33;;;1.40;;
16286;SDS011;8251;53.568;10.018;2023-10-08T03:59:22;8.33;;;1.20;;
16286;SDS011;8251;53.568;10.018;2023-10-08T04:01:56;1.73;;;0.60;;
16286;SDS011;8251;53.568;10.018;2023-10-08T04:04:27;6.27;;;1.13;;
16286;SDS011;8251;53.568;10.018;2023-10-08T04:07:15;8.93;;;0.93;;
16286;SDS011;8251;53.568;10.018;2023-10-08T04:09:53;3.37;;;1.20;;
16286;SDS011;8251;53.568;10.018;2023-10-08T04:12:51;7.20;;;0.70;;
16286;SDS011;8251;53.568;10.018;2023-10-08T04:15:41;5.93;;;1.03;;
16286;SDS011;8251;53.568;10.018;2023-10-08T04:18:08;5.43;;;1.00;;
16286;SDS011;8251;53.568;10.018;2023-10-08T04:23:38;9.23;;;1.20;;
16286;SDS011;8251;53.568;10.018;2023-10-08T04:26:05;5.10;;;0.90;;
16286;SDS011;8251;53.568;10.018;2023-10-08T04:28:33;3.43;;;1.47;;
16286;SDS011;8251;53.568;10.018;2023-10-08T04:31:01;5.10;;;1.20;;
16286;SDS011;8251;53.568;10.018;2023-10-08T04:33:41;4.40;;;1.00;;
16286;SDS011;8251;53.568;10.018;2023-10-08T04:36:09;12.40;;;1.00;;
16286;SDS011;8251;53.568;10.018;2023-10-08T04:38:43;5.67;;;1.30;;
16286;SDS011;8251;53.568;10.018;2023-10-08T04:41:12;5.93;;;0.97;;
16286;SDS011;8251;53.568;10.018;2023-10-08T04:43:44;7.60;;;1.50;;
16286;SDS011;8251;53.568;10.018;2023-10-08T04:46:16;4.73;;;1.20;;
16286;SDS011;8251;53.568;10.018;2023-10-08T04:48:59;4.37;;;1.07;;
16286;SDS011;8251;53.568;10.018;2023-10-08T04:51:31;2.63;;;0.80;;
16286;SDS011;8251;53.568;10.018;2023-10-08T04:54:05;15.63;;;1.40;;
16286;SDS011;8251;53.568;10.018;2023-10-08T04:56:32;7.53;;;0.90;;
16286;SDS011;8251;53.568;10.018;2023-10-08T04:58:58;2.00;;;0.93;;
16286;SDS011;8251;53.568;10.018;2023-10-08T05:01:25;6.30;;;1.37;;
16286;SDS011;8251;53.568;10.018;2023-10-08T05:04:03;4.83;;;0.97;;
16286;SDS011;8251;53.568;10.018;2023-10-08T05:06:55;3.40;;;0.73;;
16286;SDS011;8251;53.568;10.018;2023-10-08T05:09:42;7.37;;;1.10;;
16286;SDS011;8251;53.568;10.018;2023-10-08T05:12:27;2.77;;;0.80;;
16286;SDS011;8251;53.568;10.018;2023-10-08T05:15:03;7.17;;;0.93;;
16286;SDS011;8251;53.568;10.018;2023-10-08T05:17:58;5.83;;;1.10;;
16286;SDS011;8251;53.568;10.018;2023-10-08T05:20:38;4.47;;;1.00;;
16286;SDS011;8251;53.568;10.018;2023-10-08T05:23:25;7.93;;;0.80;;
16286;SDS011;8251;53.568;10.018;2023-10-08T05:26:10;6.80;;;0.73;;
16286;SDS011;8251;53.568;10.018;2023-10-08T05:28:46;3.63;;;0.90;;
16286;SDS011;8251;53.568;10.018;2023-10-08T05:31:26;5.30;;;1.00;;
16286;SDS011;8251;53.568;10.018;2023-10-08T05:34:12;2.37;;;1.23;;
16286;SDS011;8251;53.568;10.018;2023-10-08T05:36:43;2.90;;;0.70;;
16286;SDS011;8251;53.568;10.018;2023-10-08T05:39:37;4.17;;;1.10;;
16286;SDS011;8251;53.568;10.018;2023-10-08T05:42:09;1.73;;;0.80;;
16286;SDS011;8251;53.568;10.018;2023-10-08T05:44:43;5.43;;;0.90;;
16286;SDS011;8251;53.568;10.018;2023-10-08T05:47:11;4.47;;;1.10;;
16286;SDS011;8251;53.568;10.018;2023-10-08T05:50:03;3.77;;;1.03;;
16286;SDS011;8251;53.568;10.018;2023-10-08T05:52:48;5.30;;;1.03;;
16286;SDS011;8251;53.568;10.018;2023-10-08T05:55:29;5.63;;;1.10;;
16286;SDS011;8251;53.568;10.018;2023-10-08T05:57:59;3.93;;;0.97;;
16286;SDS011;8251;53.568;10.018;2023-10-08T06:00:38;6.60;;;1.00;;
16286;SDS011;8251;53.568;10.018;2023-10-08T06:03:12;3.43;;;0.87;;
16286;SDS011;8251;53.568;10.018;2023-10-08T06:05:59;4.10;;;0.93;;
16286;SDS011;8251;53.568;10.018;2023-10-08T06:08:43;4.47;;;1.30;;
16286;SDS011;8251;53.568;10.018;2023-10-08T06:11:34;4.07;;;1.00;;
16286;SDS011;8251;53.568;10.018;2023-10-08T06:14:09;2.83;;;0.83;;
16286;SDS011;8251;53.568;10.018;2023-10-08T06:16:42;2.53;;;0.70;;
16286;SDS011;8251;53.568;10.018;2023-10-08T06:19:09;7.10;;;0.93;;
16286;SDS011;8251;53.568;10.018;2023-10-08T06:21:38;1.57;;;0.53;;
16286;SDS011;8251;53.568;10.018;2023-10-08T06:24:05;8.90;;;0.83;;
16286;SDS011;8251;53.568;10.018;2023-10-08T06:26:38;5.17;;;0.83;;
16286;SDS011;8251;53.568;10.018;2023-10-08T06:29:21;6.93;;;0.90;;
16286;SDS011;8251;53.568;10.018;2023-10-08T06:31:53;7.23;;;0.80;;
16286;SDS011;8251;53.568;10.018;2023-10-08T06:34:21;4.27;;;0.83;;
16286;SDS011;8251;53.568;10.018;2023-10-08T06:36:53;4.87;;;0.97;;
16286;SDS011;8251;53.568;10.018;2023-10-08T06:39:20;5.20;;;1.40;;
16286;SDS011;8251;53.568;10.018;2023-10-08T06:41:52;4.07;;;1.10;;
16286;SDS011;8251;53.568;10.018;2023-10-08T06:44:22;4.77;;;0.90;;
16286;SDS011;8251;53.568;10.018;2023-10-08T06:46:49;4.47;;;0.87;;
16286;SDS011;8251;53.568;10.018;2023-10-08T06:49:20;9.33;;;1.20;;
16286;SDS011;8251;53.568;10.018;2023-10-08T06:51:49;4.60;;;0.90;;
16286;SDS011;8251;53.568;10.018;2023-10-08T06:54:17;5.90;;;1.13;;
16286;SDS011;8251;53.568;10.018;2023-10-08T06:56:45;1.20;;;0.73;;
16286;SDS011;8251;53.568;10.018;2023-10-08T06:59:18;4.70;;;0.90;;
16286;SDS011;8251;53.568;10.018;2023-10-08T07:01:47;3.87;;;1.17;;
16286;SDS011;8251;53.568;10.018;2023-10-08T07:04:16;4.60;;;1.47;;
16286;SDS011;8251;53.568;10.018;2023-10-08T07:06:44;2.67;;;1.13;;
16286;SDS011;8251;53.568;10.018;2023-10-08T07:09:11;3.37;;;0.70;;
16286;SDS011;8251;53.568;10.018;2023-10-08T07:11:54;3.37;;;0.90;;
16286;SDS011;8251;53.568;10.018;2023-10-08T07:14:23;4.00;;;0.67;;
16286;SDS011;8251;53.568;10.018;2023-10-08T07:16:52;4.90;;;1.10;;
16286;SDS011;8251;53.568;10.018;2023-10-08T07:19:20;5.27;;;0.83;;
16286;SDS011;8251;53.568;10.018;2023-10-08T07:21:57;9.07;;;1.33;;
16286;SDS011;8251;53.568;10.018;2023-10-08T07:24:29;1.20;;;0.67;;
16286;SDS011;8251;53.568;10.018;2023-10-08T07:26:59;2.17;;;1.17;;
16286;SDS011;8251;53.568;10.018;2023-10-08T07:29:32;2.07;;;0.80;;
16286;SDS011;8251;53.568;10.018;2023-10-08T07:32:00;5.50;;;0.90;;
16286;SDS011;8251;53.568;10.018;2023-10-08T07:34:35;6.60;;;1.97;;
16286;SDS011;8251;53.568;10.018;2023-10-08T07:37:01;6.77;;;1.20;;
16286;SDS011;8251;53.568;10.018;2023-10-08T07:39:30;4.13;;;1.10;;
16286;SDS011;8251;53.568;10.018;2023-10-08T07:42:03;8.27;;;0.90;;
16286;SDS011;8251;53.568;10.018;2023-10-08T07:44:36;2.10;;;0.77;;
16286;SDS011;8251;53.568;10.018;2023-10-08T07:47:04;4.90;;;1.00;;
16286;SDS011;8251;53.568;10.018;2023-10-08T07:49:35;2.17;;;0.93;;
16286;SDS011;8251;53.568;10.018;2023-10-08T07:52:02;4.13;;;1.00;;
16286;SDS011;8251;53.568;10.018;2023-10-08T07:54:31;3.13;;;0.70;;
16286;SDS011;8251;53.568;10.018;2023-10-08T07:56:59;5.10;;;1.17;;
16286;SDS011;8251;53.568;10.018;2023-10-08T07:59:34;4.50;;;1.07;;
16286;SDS011;8251;53.568;10.018;2023-10-08T08:02:06;7.33;;;1.43;;
16286;SDS011;8251;53.568;10.018;2023-10-08T08:04:35;3.50;;;0.90;;
16286;SDS011;8251;53.568;10.018;2023-10-08T08:07:02;4.20;;;1.00;;
16286;SDS011;8251;53.568;10.018;2023-10-08T08:09:30;3.13;;;1.00;;
16286;SDS011;8251;53.568;10.018;2023-10-08T08:12:03;3.53;;;1.00;;
16286;SDS011;8251;53.568;10.018;2023-10-08T08:14:32;3.00;;;0.80;;
16286;SDS011;8251;53.568;10.018;2023-10-08T08:17:04;3.47;;;0.90;;
16286;SDS011;8251;53.568;10.018;2023-10-08T08:19:38;6.83;;;1.10;;
16286;SDS011;8251;53.568;10.018;2023-10-08T08:22:05;4.10;;;0.77;;
16286;SDS011;8251;53.568;10.018;2023-10-08T08:24:32;4.73;;;0.97;;
16286;SDS011;8251;53.568;10.018;2023-10-08T08:27:01;5.23;;;1.77;;
16286;SDS011;8251;53.568;10.018;2023-10-08T08:29:34;2.90;;;0.80;;
16286;SDS011;8251;53.568;10.018;2023-10-08T08:32:11;3.53;;;1.03;;
16286;SDS011;8251;53.568;10.018;2023-10-08T08:34:40;5.97;;;1.57;;
16286;SDS011;8251;53.568;10.018;2023-10-08T08:37:09;8.67;;;0.97;;
16286;SDS011;8251;53.568;10.018;2023-10-08T08:39:36;6.73;;;1.40;;
16286;SDS011;8251;53.568;10.018;2023-10-08T08:42:03;3.00;;;0.87;;
16286;SDS011;8251;53.568;10.018;2023-10-08T08:44:30;4.47;;;1.00;;
16286;SDS011;8251;53.568;10.018;2023-10-08T08:46:59;4.73;;;1.10;;
16286;SDS011;8251;53.568;10.018;2023-10-08T08:49:30;3.00;;;1.10;;
16286;SDS011;8251;53.568;10.018;2023-10-08T08:52:05;5.43;;;1.10;;
16286;SDS011;8251;53.568;10.018;2023-10-08T08:54:32;2.57;;;1.03;;
16286;SDS011;8251;53.568;10.018;2023-10-08T08:57:02;4.47;;;1.90;;
16286;SDS011;8251;53.568;10.018;2023-10-08T08:59:31;3.03;;;0.90;;
16286;SDS011;8251;53.568;10.018;2023-10-08T09:02:01;6.83;;;1.00;;
16286;SDS011;8251;53.568;10.018;2023-10-08T09:04:34;4.20;;;0.90;;
16286;SDS011;8251;53.568;10.018;2023-10-08T09:07:02;3.97;;;1.20;;
16286;SDS011;8251;53.568;10.018;2023-10-08T09:09:32;3.60;;;0.83;;
16286;SDS011;8251;53.568;10.018;2023-10-08T09:12:02;4.07;;;0.80;;
16286;SDS011;8251;53.568;10.018;2023-10-08T09:14:30;1.80;;;0.60;;
16286;SDS011;8251;53.568;10.018;2023-10-08T09:16:59;3.53;;;0.80;;
16286;SDS011;8251;53.568;10.018;2023-10-08T09:19:29;5.03;;;0.90;;
16286;SDS011;8251;53.568;10.018;2023-10-08T09:22:02;2.97;;;0.93;;
16286;SDS011;8251;53.568;10.018;2023-10-08T09:24:30;2.03;;;0.60;;
16286;SDS011;8251;53.568;10.018;2023-10-08T09:26:58;3.90;;;0.93;;
16286;SDS011;8251;53.568;10.018;2023-10-08T09:29:27;2.80;;;0.93;;
16286;SDS011;8251;53.568;10.018;2023-10-08T09:31:55;2.13;;;0.70;;
16286;SDS011;8251;53.568;10.018;2023-10-08T09:34:27;3.53;;;1.00;;
16286;SDS011;8251;53.568;10.018;2023-10-08T09:37:02;7.27;;;0.70;;
16286;SDS011;8251;53.568;10.018;2023-10-08T09:39:30;3.37;;;1.30;;
16286;SDS011;8251;53.568;10.018;2023-10-08T09:41:59;5.87;;;0.87;;
16286;SDS011;8251;53.568;10.018;2023-10-08T09:44:27;1.70;;;0.70;;
16286;SDS011;8251;53.568;10.018;2023-10-08T09:46:57;2.67;;;1.00;;
16286;SDS011;8251;53.568;10.018;2023-10-08T09:49:30;1.53;;;0.77;;
16286;SDS011;8251;53.568;10.018;2023-10-08T09:51:59;1.77;;;0.73;;
16286;SDS011;8251;53.568;10.018;2023-10-08T09:54:31;2.10;;;1.33;;
16286;SDS011;8251;53.568;10.018;2023-10-08T09:57:05;6.70;;;0.73;;
16286;SDS011;8251;53.568;10.018;2023-10-08T09:59:33;4.17;;;0.77;;
16286;SDS011;8251;53.568;10.018;2023-10-08T10:02:01;2.83;;;0.90;;
16286;SDS011;8251;53.568;10.018;2023-10-08T10:04:30;2.20;;;0.53;;
16286;SDS011;8251;53.568;10.018;2023-10-08T10:06:57;0.60;;;0.50;;
16286;SDS011;8251;53.568;10.018;2023-10-08T10:09:26;2.87;;;0.90;;
16286;SDS011;8251;53.568;10.018;2023-10-08T10:11:53;1.83;;;0.60;;
16286;SDS011;8251;53.568;10.018;2023-10-08T10:14:22;1.87;;;1.00;;
16286;SDS011;8251;53.568;10.018;2023-10-08T10:17:05;1.83;;;0.70;;
16286;SDS011;8251;53.568;10.018;2023-10-08T10:19:36;3.57;;;0.87;;
16286;SDS011;8251;53.568;10.018;2023-10-08T10:22:09;2.33;;;0.60;;
16286;SDS011;8251;53.568;10.018;2023-10-08T10:24:40;5.43;;;1.27;;
16286;SDS011;8251;53.568;10.018;2023-10-08T10:27:11;2.00;;;0.60;;
16286;SDS011;8251;53.568;10.018;2023-10-08T10:29:39;4.70;;;0.83;;
16286;SDS011;8251;53.568;10.018;2023-10-08T10:32:09;3.00;;;0.80;;
16286;SDS011;8251;53.568;10.018;2023-10-08T10:34:39;4.53;;;0.80;;
16286;SDS011;8251;53.568;10.018;2023-10-08T10:37:10;3.13;;;0.70;;
16286;SDS011;8251;53.568;10.018;2023-10-08T10:39:53;7.20;;;0.80;;
16286;SDS011;8251;53.568;10.018;2023-10-08T10:42:24;4.23;;;1.40;;
16286;SDS011;8251;53.568;10.018;2023-10-08T10:44:53;2.07;;;0.80;;
16286;SDS011;8251;53.568;10.018;2023-10-08T10:47:23;3.63;;;0.70;;
16286;SDS011;8251;53.568;10.018;2023-10-08T10:49:53;2.30;;;0.80;;
16286;SDS011;8251;53.568;10.018;2023-10-08T10:52:40;1.07;;;0.50;;
16286;SDS011;8251;53.568;10.018;2023-10-08T10:55:18;1.37;;;0.60;;
16286;SDS011;8251;53.568;10.018;2023-10-08T10:57:57;3.10;;;0.80;;
16286;SDS011;8251;53.568;10.018;2023-10-08T11:00:36;2.53;;;0.70;;
16286;SDS011;8251;53.568;10.018;2023-10-08T11:03:22;0.83;;;0.80;;
16286;SDS011;8251;53.568;10.018;2023-10-08T11:06:08;1.70;;;0.57;;
16286;SDS011;8251;53.568;10.018;2023-10-08T11:08:40;3.47;;;0.70;;
16286;SDS011;8251;53.568;10.018;2023-10-08T11:11:12;4.47;;;1.20;;
16286;SDS011;8251;53.568;10.018;2023-10-08T11:13:42;6.10;;;1.00;;
16286;SDS011;8251;53.568;10.018;2023-10-08T11:16:15;3.63;;;0.80;;
16286;SDS011;8251;53.568;10.018;2023-10-08T11:18:45;4.00;;;0.90;;
16286;SDS011;8251;53.568;10.018;2023-10-08T11:21:15;2.80;;;0.90;;
16286;SDS011;8251;53.568;10.018;2023-10-08T11:23:47;3.27;;;0.70;;
16286;SDS011;8251;53.568;10.018;2023-10-08T11:26:22;2.07;;;0.73;;
16286;SDS011;8251;53.568;10.018;2023-10-08T11:28:57;2.07;;;0.70;;
16286;SDS011;8251;53.568;10.018;2023-10-08T11:31:26;2.47;;;0.80;;
16286;SDS011;8251;53.568;10.018;2023-10-08T11:33:58;3.27;;;0.87;;
16286;SDS011;8251;53.568;10.018;2023-10-08T11:36:26;1.40;;;0.67;;
16286;SDS011;8251;53.568;10.018;2023-10-08T11:38:55;2.33;;;0.73;;
16286;SDS011;8251;53.568;10.018;2023-10-08T11:41:28;2.10;;;0.80;;
16286;SDS011;8251;53.568;10.018;2023-10-08T11:43:56;1.50;;;0.70;;
16286;SDS011;8251;53.568;10.018;2023-10-08T11:46:25;2.67;;;1.07;;
16286;SDS011;8251;53.568;10.018;2023-10-08T11:48:57;4.40;;;0.70;;
16286;SDS011;8251;53.568;10.018;2023-10-08T11:51:29;1.37;;;0.63;;
16286;SDS011;8251;53.568;10.018;2023-10-08T11:53:59;2.13;;;0.60;;
16286;SDS011;8251;53.568;10.018;2023-10-08T11:56:26;2.60;;;1.27;;
16286;SDS011;8251;53.568;10.018;2023-10-08T11:58:55;1.97;;;0.80;;
16286;SDS011;8251;53.568;10.018;2023-10-08T12:01:22;1.07;;;0.60;;
16286;SDS011;8251;53.568;10.018;2023-10-08T12:03:49;5.73;;;2.30;;
16286;SDS011;8251;53.568;10.018;2023-10-08T12:06:16;1.60;;;1.00;;
16286;SDS011;8251;53.568;10.018;2023-10-08T12:08:44;1.80;;;0.80;;
16286;SDS011;8251;53.568;10.018;2023-10-08T12:11:12;1.63;;;0.50;;
16286;SDS011;8251;53.568;10.018;2023-10-08T12:13:41;2.23;;;0.60;;
16286;SDS011;8251;53.568;10.018;2023-10-08T12:16:12;1.70;;;0.80;;
16286;SDS011;8251;53.568;10.018;2023-10-08T12:18:46;1.33;;;0.80;;
16286;SDS011;8251;53.568;10.018;2023-10-08T12:21:18;1.07;;;0.73;;
16286;SDS011;8251;53.568;10.018;2023-10-08T12:23:45;2.57;;;0.80;;
16286;SDS011;8251;53.568;10.018;2023-10-08T12:26:13;2.50;;;0.90;;
16286;SDS011;8251;53.568;10.018;2023-10-08T12:28:45;2.83;;;1.83;;
16286;SDS011;8251;53.568;10.018;2023-10-08T12:31:13;2.40;;;0.73;;
16286;SDS011;8251;53.568;10.018;2023-10-08T12:33:41;1.40;;;0.70;;
16286;SDS011;8251;53.568;10.018;2023-10-08T12:36:09;3.37;;;1.27;;
16286;SDS011;8251;53.568;10.018;2023-10-08T12:38:37;0.80;;;0.60;;
16286;SDS011;8251;53.568;10.018;2023-10-08T12:41:04;1.23;;;0.70;;
16286;SDS011;8251;53.568;10.018;2023-10-08T12:43:37;5.90;;;0.83;;
16286;SDS011;8251;53.568;10.018;2023-10-08T12:46:11;3.10;;;0.90;;
16286;SDS011;8251;53.568;10.018;2023-10-08T12:48:43;3.20;;;1.00;;
16286;SDS011;8251;53.568;10.018;2023-10-08T12:51:16;2.77;;;1.10;;
16286;SDS011;8251;53.568;10.018;2023-10-08T12:53:42;2.30;;;1.00;;
16286;SDS011;8251;53.568;10.018;2023-10-08T12:56:16;3.27;;;1.00;;
16286;SDS011;8251;53.568;10.018;2023-10-08T12:58:46;3.13;;;1.77;;
16286;SDS011;8251;53.568;10.018;2023-10-08T13:01:15;4.33;;;0.70;;
16286;SDS011;8251;53.568;10.018;2023-10-08T13:03:43;1.63;;;0.63;;
16286;SDS011;8251;53.568;10.018;2023-10-08T13:06:14;3.33;;;0.77;;
16286;SDS011;8251;53.568;10.018;2023-10-08T13:08:47;3.50;;;0.90;;
16286;SDS011;8251;53.568;10.018;2023-10-08T13:11:14;1.63;;;0.77;;
16286;SDS011;8251;53.568;10.018;2023-10-08T13:13:41;0.70;;;0.70;;
16286;SDS011;8251;53.568;10.018;2023-10-08T13:16:09;1.83;;;1.07;;
16286;SDS011;8251;53.568;10.018;2023-10-08T13:18:38;2.13;;;1.00;;
16286;SDS011;8251;53.568;10.018;2023-10-08T13:21:08;2.37;;;1.30;;
16286;SDS011;8251;53.568;10.018;2023-10-08T13:23:35;2.13;;;1.20;;
16286;SDS011;8251;53.568;10.018;2023-10-08T13:26:02;3.77;;;1.10;;
16286;SDS011;8251;53.568;10.018;2023-10-08T13:28:31;4.87;;;1.30;;
16286;SDS011;8251;53.568;10.018;2023-10-08T13:30:59;3.33;;;1.50;;
16286;SDS011;8251;53.568;10.018;2023-10-08T13:33:34;2.10;;;1.00;;
16286;SDS011;8251;53.568;10.018;2023-10-08T13:36:05;2.33;;;1.20;;
16286;SDS011;8251;53.568;10.018;2023-10-08T13:41:13;4.20;;;1.10;;
16286;SDS011;8251;53.568;10.018;2023-10-08T13:43:43;1.73;;;1.10;;
16286;SDS011;8251;53.568;10.018;2023-10-08T13:46:12;4.93;;;1.50;;
16286;SDS011;8251;53.568;10.018;2023-10-08T13:48:40;2.00;;;1.00;;
16286;SDS011;8251;53.568;10.018;2023-10-08T13:51:13;3.30;;;1.17;;
16286;SDS011;8251;53.568;10.018;2023-10-08T13:53:47;5.70;;;1.10;;
16286;SDS011;8251;53.568;10.018;2023-10-08T13:56:17;2.60;;;1.10;;
16286;SDS011;8251;53.568;10.018;2023-10-08T13:58:45;2.90;;;1.23;;
16286;SDS011;8251;53.568;10.018;2023-10-08T14:01:15;2.57;;;0.93;;
16286;SDS011;8251;53.568;10.018;2023-10-08T14:03:45;2.57;;;1.20;;
16286;SDS011;8251;53.568;10.018;2023-10-08T14:06:14;2.57;;;1.40;;
16286;SDS011;8251;53.568;10.018;2023-10-08T14:08:42;4.53;;;1.40;;
16286;SDS011;8251;53.568;10.018;2023-10-08T14:11:16;5.13;;;1.53;;
16286;SDS011;8251;53.568;10.018;2023-10-08T14:13:43;4.63;;;1.40;;
16286;SDS011;8251;53.568;10.018;2023-10-08T14:16:12;2.30;;;1.10;;
16286;SDS011;8251;53.568;10.018;2023-10-08T14:18:40;1.40;;;1.00;;
16286;SDS011;8251;53.568;10.018;2023-10-08T14:21:07;2.63;;;1.17;;
16286;SDS011;8251;53.568;10.018;2023-10-08T14:23:36;2.87;;;0.90;;
16286;SDS011;8251;53.568;10.018;2023-10-08T14:26:05;3.67;;;1.20;;
16286;SDS011;8251;53.568;10.018;2023-10-08T14:28:34;7.20;;;1.00;;
16286;SDS011;8251;53.568;10.018;2023-10-08T14:31:09;1.20;;;0.90;;
16286;SDS011;8251;53.568;10.018;2023-10-08T14:33:40;1.80;;;1.00;;
16286;SDS011;8251;53.568;10.018;2023-10-08T14:36:09;2.63;;;1.00;;
16286;SDS011;8251;53.568;10.018;2023-10-08T14:38:54;1.73;;;1.10;;
16286;SDS011;8251;53.568;10.018;2023-10-08T14:41:39;5.23;;;1.00;;
16286;SDS011;8251;53.568;10.018;2023-10-08T14:44:23;5.23;;;1.03;;
16286;SDS011;8251;53.568;10.018;2023-10-08T14:46:50;3.13;;;1.20;;
16286;SDS011;8251;53.568;10.018;2023-10-08T14:49:19;5.03;;;0.93;;
16286;SDS011;8251;53.568;10.018;2023-10-08T14:51:47;2.90;;;1.10;;
16286;SDS011;8251;53.568;10.018;2023-10-08T14:54:16;1.20;;;0.80;;
16286;SDS011;8251;53.568;10.018;2023-10-08T14:56:42;1.73;;;1.00;;
16286;SDS011;8251;53.568;10.018;2023-10-08T14:59:09;2.10;;;1.10;;
16286;SDS011;8251;53.568;10.018;2023-10-08T15:01:37;2.50;;;1.00;;
16286;SDS011;8251;53.568;10.018;2023-10-08T15:04:04;1.50;;;1.07;;
16286;SDS011;8251;53.568;10.018;2023-10-08T15:06:31;5.60;;;1.20;;
16286;SDS011;8251;53.568;10.018;2023-10-08T15:08:58;7.00;;;1.20;;
16286;SDS011;8251;53.568;10.018;2023-10-08T15:11:28;2.20;;;0.97;;
16286;SDS011;8251;53.568;10.018;2023-10-08T15:13:55;8.60;;;1.27;;
16286;SDS011;8251;53.568;10.018;2023-10-08T15:16:23;1.70;;;0.93;;
16286;SDS011;8251;53.568;10.018;2023-10-08T15:18:51;5.37;;;1.20;;
16286;SDS011;8251;53.568;10.018;2023-10-08T15:21:18;2.07;;;1.40;;
16286;SDS011;8251;53.568;10.018;2023-10-08T15:23:46;5.43;;;2.20;;